Open Full Screen Window  High Contrast Mode
Wind Gusting 00 knots
03
June 20, 2018 3:25 AM EDT
Weather Information
Wind Direction
  190 °
Wind Speed
  03 kt (3 mph)
Wind Gust
  00 kt (0 mph)
Altimeter
29.90 in
Visibility
10 SM
Temperature
22° C
72° F
Dewpoint
22° C
72° F
Humidity
100%
1hr Rain Fall
00.00 in.
24hr Rain Fall
00.31 in.
Sky Condition
Clear
VFR

METAR KI69 200725Z AUTO 19003KT 10SM CLR 22/22 A2990 RMK AO2 T02160216

FAA Disclaimer: The data displayed is for advisory purposes only and is not to be used for flight planning or operations.